Time;durP1;ratioP1;P1;durP2;ratioP2;P2;SDS_P1;SDS_P2;PMS_P1;PMS_P2;Temp;Humidity;BMP_temperature;BMP_pressure;BME280_temperature;BME280_humidity;BME280_pressure;Samples;Min_cycle;Max_cycle;Signal;HPM_P1;HPM_P2
2022/05/02 00:00:26;;;;;;;20.83;15.57;;;;;;;;;;2064386;28;20173;-56
2022/05/02 00:01:27;;;;;;;17.13;15.25;;;;;;;;;;2059962;28;20210;-55
2022/05/02 00:02:27;;;;;;;17.75;15.90;;;;;;;;;;2068860;28;20227;-55
2022/05/02 00:03:27;;;;;;;18.52;16.50;;;;;;;;;;2068222;28;20307;-56
2022/05/02 00:04:27;;;;;;;18.73;16.73;;;;;;;;;;2068236;28;20181;-56
2022/05/02 00:05:28;;;;;;;17.67;15.73;;;;;;;;;;2068438;28;20166;-59
2022/05/02 00:06:28;;;;;;;18.23;16.30;;;;;;;;;;2068569;28;20174;-54
2022/05/02 00:07:28;;;;;;;18.35;16.40;;;;;;;;;;2068623;28;20258;-57
2022/05/02 00:08:29;;;;;;;18.02;15.80;;;;;;;;;;2069783;28;20162;-56
2022/05/02 00:09:29;;;;;;;18.05;16.25;;;;;;;;;;2072660;28;20224;-55
2022/05/02 00:10:30;;;;;;;18.25;16.35;;;;;;;;;;2077033;28;20177;-55
2022/05/02 00:11:30;;;;;;;17.60;15.98;;;;;;;;;;2076214;28;20596;-57
2022/05/02 00:12:30;;;;;;;17.50;15.25;;;;;;;;;;2076141;28;20176;-56
2022/05/02 00:13:31;;;;;;;18.13;15.13;;;;;;;;;;2076494;28;20196;-55
2022/05/02 00:14:32;;;;;;;16.50;14.80;;;;;;;;;;2073737;28;20186;-57
2022/05/02 00:15:32;;;;;;;18.02;16.20;;;;;;;;;;2075066;28;20242;-55
2022/05/02 00:16:32;;;;;;;17.23;15.50;;;;;;;;;;2076240;28;20189;-54
2022/05/02 00:18:52;;;;;;;17.33;15.50;;;;;;;;;;2068106;28;20297;-56
2022/05/02 00:19:52;;;;;;;17.50;15.82;;;;;;;;;;2075484;28;20186;-57
2022/05/02 00:20:52;;;;;;;18.25;16.38;;;;;;;;;;2066285;28;20161;-59
2022/05/02 00:21:53;;;;;;;17.63;15.82;;;;;;;;;;2066472;28;20283;-55
2022/05/02 00:22:53;;;;;;;18.35;16.25;;;;;;;;;;2075718;28;20256;-52
2022/05/02 00:23:53;;;;;;;17.65;15.88;;;;;;;;;;2067138;28;20169;-55
2022/05/02 00:24:54;;;;;;;18.77;16.88;;;;;;;;;;2066772;28;20265;-56
2022/05/02 00:25:54;;;;;;;18.77;16.85;;;;;;;;;;2074715;28;20169;-56
2022/05/02 00:26:54;;;;;;;17.58;15.77;;;;;;;;;;2073080;28;21167;-54
2022/05/02 00:27:54;;;;;;;19.30;16.52;;;;;;;;;;2075080;28;20263;-57
2022/05/02 00:28:55;;;;;;;19.30;17.50;;;;;;;;;;2079482;28;20196;-52
2022/05/02 00:29:55;;;;;;;16.95;15.23;;;;;;;;;;2076686;28;20214;-53
2022/05/02 00:30:55;;;;;;;19.30;17.38;;;;;;;;;;2066701;28;20177;-55
2022/05/02 00:31:55;;;;;;;16.70;14.88;;;;;;;;;;2062990;28;20181;-54
2022/05/02 00:32:57;;;;;;;18.05;16.25;;;;;;;;;;2078463;28;20173;-56
2022/05/02 00:33:57;;;;;;;18.40;15.73;;;;;;;;;;2072773;28;20179;-55
2022/05/02 00:34:57;;;;;;;17.83;16.02;;;;;;;;;;2071379;28;20184;-53
2022/05/02 00:35:57;;;;;;;20.00;16.08;;;;;;;;;;2073115;28;20169;-51
2022/05/02 00:36:58;;;;;;;19.13;16.25;;;;;;;;;;2073260;28;20184;-54
2022/05/02 00:37:58;;;;;;;17.52;15.82;;;;;;;;;;2073470;28;20173;-56
2022/05/02 00:38:59;;;;;;;17.80;15.88;;;;;;;;;;2072551;28;20228;-53
2022/05/02 00:39:59;;;;;;;18.15;15.13;;;;;;;;;;2070929;28;20176;-53
2022/05/02 00:40:59;;;;;;;17.10;15.35;;;;;;;;;;2074556;28;20240;-54
2022/05/02 00:42:00;;;;;;;18.42;16.63;;;;;;;;;;2074542;28;20169;-54
2022/05/02 00:43:00;;;;;;;18.23;16.42;;;;;;;;;;2073847;28;20540;-54
2022/05/02 00:44:01;;;;;;;18.48;16.63;;;;;;;;;;2073392;28;20200;-51
2022/05/02 00:45:03;;;;;;;18.33;16.50;;;;;;;;;;2073359;28;20223;-57
2022/05/02 00:46:15;;;;;;;18.83;16.13;;;;;;;;;;2066178;28;20217;-54
2022/05/02 00:47:17;;;;;;;18.33;16.05;;;;;;;;;;2065304;28;20170;-52
2022/05/02 00:48:17;;;;;;;19.17;17.08;;;;;;;;;;2065387;28;20264;-53
2022/05/02 00:49:17;;;;;;;17.75;16.15;;;;;;;;;;2065740;28;20627;-55
2022/05/02 00:50:28;;;;;;;18.60;16.73;;;;;;;;;;2069117;28;20183;-54
2022/05/02 00:51:28;;;;;;;17.75;15.80;;;;;;;;;;2065329;28;20252;-55
2022/05/02 00:52:28;;;;;;;17.38;15.75;;;;;;;;;;2056830;28;20177;-57
2022/05/02 00:53:29;;;;;;;18.20;16.38;;;;;;;;;;2056691;28;20213;-53
2022/05/02 00:54:29;;;;;;;18.35;16.55;;;;;;;;;;2067592;28;20177;-56
2022/05/02 00:55:30;;;;;;;19.67;15.35;;;;;;;;;;2069155;28;20181;-54
2022/05/02 00:56:31;;;;;;;17.63;15.88;;;;;;;;;;2072933;28;20184;-54
2022/05/02 00:57:32;;;;;;;16.58;14.82;;;;;;;;;;2069028;28;20181;-54
2022/05/02 00:58:36;;;;;;;17.92;16.08;;;;;;;;;;2081244;28;20172;-55
2022/05/02 00:59:37;;;;;;;19.88;17.00;;;;;;;;;;2065254;28;20239;-55
2022/05/02 01:00:38;;;;;;;17.80;16.10;;;;;;;;;;2068138;28;20165;-56
2022/05/02 01:01:38;;;;;;;19.45;17.42;;;;;;;;;;2065419;28;20177;-57
2022/05/02 01:02:38;;;;;;;18.48;16.48;;;;;;;;;;2065465;28;20173;-55
2022/05/02 01:03:38;;;;;;;20.52;16.00;;;;;;;;;;2070172;28;20173;-53
2022/05/02 01:04:39;;;;;;;20.52;17.35;;;;;;;;;;2072988;28;20703;-52
2022/05/02 01:07:10;;;;;;;19.20;17.25;;;;;;;;;;2068432;28;20583;-52
2022/05/02 01:08:10;;;;;;;20.63;17.25;;;;;;;;;;2073607;28;20252;-52
2022/05/02 01:09:10;;;;;;;19.47;16.77;;;;;;;;;;2072787;28;20604;-53
2022/05/02 01:10:16;;;;;;;23.17;18.10;;;;;;;;;;2073583;28;20642;-54
2022/05/02 01:11:17;;;;;;;20.23;17.17;;;;;;;;;;2064976;28;20220;-56
2022/05/02 01:12:18;;;;;;;18.50;16.60;;;;;;;;;;2064726;28;20177;-58
2022/05/02 01:13:33;;;;;;;18.27;16.52;;;;;;;;;;2070942;28;20185;-54
2022/05/02 01:14:34;;;;;;;18.90;17.00;;;;;;;;;;2060061;28;20200;-54
2022/05/02 01:15:34;;;;;;;18.98;16.58;;;;;;;;;;2064895;28;20177;-54
2022/05/02 01:16:35;;;;;;;19.33;17.33;;;;;;;;;;2073344;28;20192;-52
2022/05/02 01:17:37;;;;;;;19.27;17.27;;;;;;;;;;2064750;28;20614;-57
2022/05/02 01:18:38;;;;;;;18.65;16.55;;;;;;;;;;2064646;28;20197;-53
2022/05/02 01:19:38;;;;;;;19.95;17.17;;;;;;;;;;2064474;28;20205;-53
2022/05/02 01:20:38;;;;;;;19.73;17.80;;;;;;;;;;2064635;28;20174;-55
2022/05/02 01:21:40;;;;;;;19.03;17.13;;;;;;;;;;2064892;28;20174;-53
2022/05/02 01:22:40;;;;;;;18.80;17.00;;;;;;;;;;2064281;28;20683;-53
2022/05/02 01:23:41;;;;;;;19.30;17.17;;;;;;;;;;2073823;28;20173;-56
2022/05/02 01:24:46;;;;;;;21.08;17.75;;;;;;;;;;2073326;28;20179;-54
2022/05/02 01:25:46;;;;;;;21.02;17.58;;;;;;;;;;2073482;28;20226;-56
2022/05/02 01:26:46;;;;;;;19.17;16.77;;;;;;;;;;2073333;28;20212;-52
2022/05/02 01:27:47;;;;;;;19.70;17.60;;;;;;;;;;2068658;28;20616;-56
2022/05/02 01:28:48;;;;;;;19.67;17.63;;;;;;;;;;2073386;28;20232;-53
2022/05/02 01:29:48;;;;;;;18.88;16.98;;;;;;;;;;2073373;28;20184;-53
2022/05/02 01:30:49;;;;;;;19.63;17.63;;;;;;;;;;2065816;28;20677;-55
2022/05/02 01:31:49;;;;;;;20.17;18.00;;;;;;;;;;2065465;28;20176;-55
2022/05/02 01:32:49;;;;;;;20.05;17.67;;;;;;;;;;2065441;28;20200;-53
2022/05/02 01:33:50;;;;;;;20.83;17.50;;;;;;;;;;2072436;28;20250;-54
2022/05/02 01:34:50;;;;;;;20.27;17.90;;;;;;;;;;2066091;28;20185;-53
2022/05/02 01:35:51;;;;;;;20.03;18.10;;;;;;;;;;2065680;28;20212;-52
2022/05/02 01:36:51;;;;;;;20.47;18.40;;;;;;;;;;2056361;28;20186;-55
2022/05/02 01:37:51;;;;;;;21.75;18.85;;;;;;;;;;2056684;28;20201;-57
2022/05/02 01:38:51;;;;;;;21.13;19.00;;;;;;;;;;2056357;28;20198;-56
2022/05/02 01:39:52;;;;;;;19.20;17.25;;;;;;;;;;2065140;28;20170;-57
2022/05/02 01:40:52;;;;;;;20.42;18.23;;;;;;;;;;2066300;28;20261;-55
2022/05/02 01:41:52;;;;;;;19.57;17.47;;;;;;;;;;2073405;28;20222;-55
2022/05/02 01:42:52;;;;;;;21.27;18.60;;;;;;;;;;2073141;28;20189;-56
2022/05/02 01:43:53;;;;;;;20.67;18.50;;;;;;;;;;2064377;28;20204;-57
2022/05/02 01:44:53;;;;;;;19.50;17.63;;;;;;;;;;2064501;28;20631;-53
2022/05/02 01:45:54;;;;;;;19.45;17.45;;;;;;;;;;2073236;28;20200;-54
2022/05/02 01:46:54;;;;;;;20.13;18.05;;;;;;;;;;2067846;28;20634;-52
2022/05/02 01:47:54;;;;;;;20.10;18.00;;;;;;;;;;2065167;28;20630;-54
2022/05/02 01:48:55;;;;;;;21.50;18.00;;;;;;;;;;2065126;28;20201;-56
2022/05/02 01:49:55;;;;;;;20.77;18.67;;;;;;;;;;2066323;28;20256;-57
2022/05/02 01:50:57;;;;;;;21.65;18.65;;;;;;;;;;2068337;28;20172;-53
2022/05/02 01:52:00;;;;;;;19.77;17.67;;;;;;;;;;2073199;28;20622;-57
2022/05/02 01:53:00;;;;;;;21.03;18.83;;;;;;;;;;2073482;28;20645;-56
2022/05/02 01:54:00;;;;;;;20.85;18.77;;;;;;;;;;2072832;28;20260;-52
2022/05/02 01:55:00;;;;;;;24.05;18.45;;;;;;;;;;2073290;28;20176;-54
2022/05/02 01:56:01;;;;;;;20.50;18.40;;;;;;;;;;2068710;28;20590;-56
2022/05/02 01:57:01;;;;;;;20.77;18.60;;;;;;;;;;2067800;28;20192;-54
2022/05/02 01:58:02;;;;;;;20.15;18.00;;;;;;;;;;2068032;28;20224;-54
2022/05/02 01:59:03;;;;;;;20.50;18.30;;;;;;;;;;2064446;28;20192;-54
2022/05/02 02:00:04;;;;;;;21.67;17.33;;;;;;;;;;2065293;28;20190;-55
2022/05/02 02:01:15;;;;;;;20.67;18.47;;;;;;;;;;2066857;28;20174;-54
2022/05/02 02:02:15;;;;;;;20.43;18.23;;;;;;;;;;2066475;28;20182;-54
2022/05/02 02:03:15;;;;;;;19.25;17.45;;;;;;;;;;2066832;28;20180;-53
2022/05/02 02:05:50;;;;;;;19.73;17.63;;;;;;;;;;2066835;28;20172;-53
2022/05/02 02:06:51;;;;;;;21.63;18.92;;;;;;;;;;2071868;28;20173;-52
2022/05/02 02:07:51;;;;;;;22.60;19.20;;;;;;;;;;2074909;28;20181;-53
2022/05/02 02:08:51;;;;;;;21.30;19.10;;;;;;;;;;2074647;28;20208;-56
2022/05/02 02:09:51;;;;;;;21.40;18.50;;;;;;;;;;2074834;28;20239;-57
2022/05/02 02:10:56;;;;;;;22.87;19.97;;;;;;;;;;2072245;28;20180;-52
2022/05/02 02:11:57;;;;;;;23.30;18.87;;;;;;;;;;2066926;28;20201;-53
2022/05/02 02:12:58;;;;;;;21.08;18.80;;;;;;;;;;2066373;28;20542;-54
2022/05/02 02:13:58;;;;;;;21.67;19.48;;;;;;;;;;2066358;28;20212;-55
2022/05/02 02:14:58;;;;;;;22.47;18.60;;;;;;;;;;2066452;28;20232;-54
2022/05/02 02:15:59;;;;;;;20.47;17.40;;;;;;;;;;2061468;28;20165;-54
2022/05/02 02:16:59;;;;;;;21.43;18.13;;;;;;;;;;2066126;28;20705;-54
2022/05/02 02:18:00;;;;;;;20.43;18.30;;;;;;;;;;2074726;28;20262;-56
2022/05/02 02:19:00;;;;;;;19.57;16.97;;;;;;;;;;2065413;28;20189;-52
2022/05/02 02:20:00;;;;;;;19.07;17.20;;;;;;;;;;2057877;28;20182;-55
2022/05/02 02:21:01;;;;;;;20.17;17.67;;;;;;;;;;2062332;28;20819;-55
2022/05/02 02:22:16;;;;;;;20.00;18.00;;;;;;;;;;2057741;28;20679;-53
2022/05/02 02:23:16;;;;;;;20.37;18.20;;;;;;;;;;2065495;28;20253;-54
2022/05/02 02:24:16;;;;;;;20.83;18.77;;;;;;;;;;2074232;28;20227;-58
2022/05/02 02:25:17;;;;;;;23.33;19.50;;;;;;;;;;2074673;28;20169;-53
2022/05/02 02:26:17;;;;;;;21.60;19.33;;;;;;;;;;2074709;28;20169;-53
2022/05/02 02:27:17;;;;;;;23.37;20.67;;;;;;;;;;2074647;28;20234;-56
2022/05/02 02:28:17;;;;;;;23.93;20.10;;;;;;;;;;2074317;28;20638;-54
2022/05/02 02:29:18;;;;;;;25.13;22.10;;;;;;;;;;2074486;28;20228;-55
2022/05/02 02:30:19;;;;;;;23.57;20.87;;;;;;;;;;2074621;28;20173;-54
2022/05/02 02:31:19;;;;;;;23.13;20.87;;;;;;;;;;2073719;28;20653;-54
2022/05/02 02:32:19;;;;;;;22.13;19.83;;;;;;;;;;2074408;28;20260;-53
2022/05/02 02:33:20;;;;;;;23.83;20.30;;;;;;;;;;2074382;28;20230;-52
2022/05/02 02:34:20;;;;;;;22.77;19.67;;;;;;;;;;2074207;28;20534;-54
2022/05/02 02:35:21;;;;;;;23.47;19.77;;;;;;;;;;2073817;28;20180;-57
2022/05/02 02:36:21;;;;;;;21.60;19.30;;;;;;;;;;2072576;28;20177;-53
2022/05/02 02:37:22;;;;;;;21.83;19.53;;;;;;;;;;2074734;28;20642;-54
2022/05/02 02:38:22;;;;;;;22.00;19.50;;;;;;;;;;2074532;28;20177;-54
2022/05/02 02:39:22;;;;;;;21.33;19.03;;;;;;;;;;2074356;28;20219;-57
2022/05/02 02:40:22;;;;;;;21.63;19.33;;;;;;;;;;2073109;28;20205;-56
2022/05/02 02:41:23;;;;;;;21.17;19.00;;;;;;;;;;2069826;28;20178;-55
2022/05/02 02:42:23;;;;;;;22.67;18.50;;;;;;;;;;2066432;28;20174;-54
2022/05/02 02:43:24;;;;;;;21.77;19.17;;;;;;;;;;2066211;28;20170;-55
2022/05/02 02:44:24;;;;;;;20.97;18.70;;;;;;;;;;2066059;28;20177;-54
2022/05/02 02:45:24;;;;;;;19.60;17.43;;;;;;;;;;2066319;28;20316;-52
2022/05/02 02:46:24;;;;;;;19.87;17.97;;;;;;;;;;2066396;28;20182;-55
2022/05/02 02:47:25;;;;;;;21.60;19.30;;;;;;;;;;2057827;28;20197;-52
2022/05/02 02:48:25;;;;;;;23.90;18.50;;;;;;;;;;2049433;29;20565;-56
2022/05/02 02:49:25;;;;;;;20.13;18.17;;;;;;;;;;2058293;28;20174;-55
2022/05/02 02:50:25;;;;;;;20.90;18.87;;;;;;;;;;2074280;28;20258;-53
2022/05/02 02:51:26;;;;;;;21.33;19.03;;;;;;;;;;2074040;28;20184;-54
2022/05/02 02:52:26;;;;;;;21.33;18.47;;;;;;;;;;2074610;28;20553;-54
2022/05/02 02:53:26;;;;;;;22.17;19.73;;;;;;;;;;2074660;28;20644;-52
2022/05/02 02:54:26;;;;;;;22.30;19.50;;;;;;;;;;2057352;28;20202;-53
2022/05/02 02:55:27;;;;;;;22.00;19.23;;;;;;;;;;2057785;28;20664;-56
2022/05/02 02:56:27;;;;;;;22.10;19.80;;;;;;;;;;2074164;28;20213;-52
2022/05/02 02:57:27;;;;;;;23.97;21.33;;;;;;;;;;2068013;28;20248;-52
2022/05/02 02:58:28;;;;;;;23.60;21.10;;;;;;;;;;2066207;28;20177;-56
2022/05/02 02:59:28;;;;;;;22.60;20.13;;;;;;;;;;2049865;29;20715;-54
2022/05/02 03:00:29;;;;;;;25.60;21.23;;;;;;;;;;2049696;29;20730;-52
2022/05/02 03:01:29;;;;;;;26.03;21.87;;;;;;;;;;2072712;28;20227;-54
2022/05/02 03:02:30;;;;;;;22.57;20.17;;;;;;;;;;2074353;28;20263;-53
2022/05/02 03:03:30;;;;;;;25.57;21.57;;;;;;;;;;2074555;28;20570;-55
2022/05/02 03:06:01;;;;;;;21.77;19.57;;;;;;;;;;2074234;28;20161;-56
2022/05/02 03:07:01;;;;;;;20.50;18.37;;;;;;;;;;2074168;28;20188;-55
2022/05/02 03:08:02;;;;;;;25.53;21.33;;;;;;;;;;2065687;28;20181;-55
2022/05/02 03:09:03;;;;;;;21.40;18.93;;;;;;;;;;2057438;28;20249;-55
2022/05/02 03:10:04;;;;;;;21.60;18.73;;;;;;;;;;2065727;28;20166;-54
2022/05/02 03:11:04;;;;;;;21.73;19.50;;;;;;;;;;2070575;28;20545;-53
2022/05/02 03:12:04;;;;;;;21.57;18.33;;;;;;;;;;2060717;28;20181;-53
2022/05/02 03:13:05;;;;;;;23.77;18.07;;;;;;;;;;2065663;28;20184;-53
2022/05/02 03:14:05;;;;;;;21.00;18.80;;;;;;;;;;2073831;28;20168;-53
2022/05/02 03:15:05;;;;;;;21.43;18.23;;;;;;;;;;2074056;28;20173;-55
2022/05/02 03:16:06;;;;;;;21.53;18.83;;;;;;;;;;2074215;28;20181;-55
2022/05/02 03:17:06;;;;;;;21.73;18.97;;;;;;;;;;2070491;28;20177;-53
2022/05/02 03:18:06;;;;;;;19.70;17.67;;;;;;;;;;2057920;28;20178;-53
2022/05/02 03:19:06;;;;;;;20.67;18.07;;;;;;;;;;2057234;28;20194;-54
2022/05/02 03:20:07;;;;;;;20.57;18.37;;;;;;;;;;2066314;28;20651;-55
2022/05/02 03:21:07;;;;;;;21.20;18.87;;;;;;;;;;2066242;28;20216;-53
2022/05/02 03:22:08;;;;;;;22.07;18.53;;;;;;;;;;2068761;28;20663;-56
2022/05/02 03:23:08;;;;;;;20.27;18.17;;;;;;;;;;2074160;28;20629;-53
2022/05/02 03:24:08;;;;;;;21.53;19.33;;;;;;;;;;2073852;28;20171;-54
2022/05/02 03:25:09;;;;;;;20.63;18.50;;;;;;;;;;2073971;28;20161;-53
2022/05/02 03:26:09;;;;;;;21.07;18.87;;;;;;;;;;2070438;28;20185;-54
2022/05/02 03:27:09;;;;;;;19.60;17.50;;;;;;;;;;2066018;28;20252;-54
2022/05/02 03:28:09;;;;;;;24.77;20.27;;;;;;;;;;2063666;28;20216;-55
2022/05/02 03:29:10;;;;;;;22.63;19.70;;;;;;;;;;2065369;28;20186;-56
2022/05/02 03:30:10;;;;;;;22.70;19.23;;;;;;;;;;2074185;28;20181;-56
2022/05/02 03:31:10;;;;;;;22.37;19.97;;;;;;;;;;2064696;28;20260;-53
2022/05/02 03:32:11;;;;;;;21.97;19.67;;;;;;;;;;2065353;28;20224;-53
2022/05/02 03:33:11;;;;;;;23.67;21.27;;;;;;;;;;2065677;28;20185;-56
2022/05/02 03:34:11;;;;;;;24.83;19.87;;;;;;;;;;2074190;28;20219;-54
2022/05/02 03:35:12;;;;;;;22.80;20.23;;;;;;;;;;2074338;28;20181;-63
2022/05/02 03:36:12;;;;;;;24.97;19.30;;;;;;;;;;2073340;28;20165;-55
2022/05/02 03:37:12;;;;;;;21.67;19.57;;;;;;;;;;2065448;28;20679;-53
2022/05/02 03:38:12;;;;;;;21.37;19.20;;;;;;;;;;2065139;28;20177;-56
2022/05/02 03:39:13;;;;;;;22.37;20.07;;;;;;;;;;2073839;28;20204;-57
2022/05/02 03:40:13;;;;;;;20.57;18.40;;;;;;;;;;2073789;28;20215;-55
2022/05/02 03:41:13;;;;;;;20.73;18.40;;;;;;;;;;2069765;28;20223;-56
2022/05/02 03:42:13;;;;;;;22.57;19.43;;;;;;;;;;2074087;28;20184;-55
2022/05/02 03:43:14;;;;;;;21.93;19.50;;;;;;;;;;2074276;28;20173;-56
2022/05/02 03:44:14;;;;;;;23.00;19.13;;;;;;;;;;2064820;28;20229;-56
2022/05/02 03:45:14;;;;;;;24.00;20.60;;;;;;;;;;2065441;28;20614;-54
2022/05/02 03:46:14;;;;;;;21.70;19.37;;;;;;;;;;2073368;28;20252;-55
2022/05/02 03:47:15;;;;;;;22.97;20.60;;;;;;;;;;2074040;28;20255;-53
2022/05/02 03:48:15;;;;;;;21.83;19.43;;;;;;;;;;2073823;28;20228;-50
2022/05/02 03:49:15;;;;;;;22.87;19.00;;;;;;;;;;2073861;28;20212;-53
2022/05/02 03:50:15;;;;;;;23.47;20.17;;;;;;;;;;2073829;28;20188;-56
2022/05/02 03:51:16;;;;;;;20.00;17.90;;;;;;;;;;2070003;28;20178;-54
2022/05/02 03:52:16;;;;;;;21.00;18.47;;;;;;;;;;2065607;28;20188;-53
2022/05/02 03:53:18;;;;;;;22.23;19.77;;;;;;;;;;2065856;28;20169;-54
2022/05/02 03:54:18;;;;;;;22.23;19.23;;;;;;;;;;2065309;28;20405;-56
2022/05/02 03:55:18;;;;;;;21.50;19.13;;;;;;;;;;2057227;28;20182;-53
2022/05/02 03:56:18;;;;;;;22.50;19.40;;;;;;;;;;2056887;28;20170;-56
2022/05/02 03:57:19;;;;;;;20.60;18.60;;;;;;;;;;2066272;28;20177;-53
2022/05/02 03:58:19;;;;;;;21.50;19.33;;;;;;;;;;2065589;28;20236;-56
2022/05/02 03:59:20;;;;;;;21.53;19.23;;;;;;;;;;2065687;28;20227;-56
2022/05/02 04:00:20;;;;;;;22.00;19.60;;;;;;;;;;2065748;28;20223;-56
2022/05/02 04:01:20;;;;;;;21.47;19.17;;;;;;;;;;2065875;28;20166;-54
2022/05/02 04:02:20;;;;;;;21.23;19.03;;;;;;;;;;2065876;28;20170;-56
2022/05/02 04:03:21;;;;;;;22.43;20.13;;;;;;;;;;2065668;28;20800;-54
2022/05/02 04:04:21;;;;;;;23.40;20.07;;;;;;;;;;2065299;28;20194;-52
2022/05/02 04:05:21;;;;;;;21.93;19.63;;;;;;;;;;2065608;28;20260;-54
2022/05/02 04:06:22;;;;;;;22.93;20.03;;;;;;;;;;2065503;28;20202;-51
2022/05/02 04:07:22;;;;;;;23.47;20.37;;;;;;;;;;2065527;28;20514;-55
2022/05/02 04:08:22;;;;;;;22.03;19.67;;;;;;;;;;2065757;28;20256;-53
2022/05/02 04:09:23;;;;;;;25.67;20.67;;;;;;;;;;2065619;28;20670;-53
2022/05/02 04:10:23;;;;;;;22.33;20.03;;;;;;;;;;2065776;28;20206;-53
2022/05/02 04:11:23;;;;;;;27.03;21.10;;;;;;;;;;2069971;28;20216;-54
2022/05/02 04:12:24;;;;;;;26.17;21.87;;;;;;;;;;2073960;28;20181;-53
2022/05/02 04:13:24;;;;;;;24.00;21.17;;;;;;;;;;2073778;28;20241;-54
2022/05/02 04:14:24;;;;;;;22.57;20.17;;;;;;;;;;2073536;28;20264;-54
2022/05/02 04:15:24;;;;;;;23.70;21.17;;;;;;;;;;2073752;28;20536;-55
2022/05/02 04:16:24;;;;;;;23.83;20.90;;;;;;;;;;2073326;28;20715;-52
2022/05/02 04:17:25;;;;;;;30.70;21.37;;;;;;;;;;2064905;28;20682;-54
2022/05/02 04:18:25;;;;;;;27.70;21.67;;;;;;;;;;2064256;28;20176;-54
2022/05/02 04:19:25;;;;;;;25.77;22.00;;;;;;;;;;2079168;28;20204;-54
2022/05/02 04:20:25;;;;;;;26.40;20.53;;;;;;;;;;2074897;28;20169;-53
2022/05/02 04:21:26;;;;;;;24.17;20.20;;;;;;;;;;2073964;28;20173;-53
2022/05/02 04:22:26;;;;;;;24.80;20.70;;;;;;;;;;2079333;28;20172;-54
2022/05/02 04:23:26;;;;;;;26.47;21.40;;;;;;;;;;2080403;28;20595;-56
2022/05/02 04:24:28;;;;;;;26.67;21.60;;;;;;;;;;2074412;28;20666;-52
2022/05/02 04:25:28;;;;;;;26.33;21.20;;;;;;;;;;2073836;28;20185;-53
2022/05/02 04:26:29;;;;;;;22.20;19.93;;;;;;;;;;2081045;28;20172;-57
2022/05/02 04:27:29;;;;;;;23.43;20.93;;;;;;;;;;2074398;28;20165;-55
2022/05/02 04:28:30;;;;;;;23.20;20.70;;;;;;;;;;2073600;28;20634;-54
2022/05/02 04:29:30;;;;;;;24.30;21.07;;;;;;;;;;2073033;28;20558;-54
2022/05/02 04:30:31;;;;;;;23.90;20.60;;;;;;;;;;2065461;28;20466;-55
2022/05/02 04:31:31;;;;;;;25.73;21.07;;;;;;;;;;2068957;28;20651;-54
2022/05/02 04:32:31;;;;;;;26.40;21.90;;;;;;;;;;2073133;28;20533;-55
2022/05/02 04:33:31;;;;;;;24.67;21.57;;;;;;;;;;2069958;28;20692;-53
2022/05/02 04:34:32;;;;;;;27.03;22.23;;;;;;;;;;2064282;28;20233;-54
2022/05/02 04:35:32;;;;;;;26.77;22.20;;;;;;;;;;2072915;28;20542;-65
2022/05/02 04:36:32;;;;;;;29.27;22.00;;;;;;;;;;2056071;28;20295;-57
2022/05/02 04:37:32;;;;;;;26.93;22.10;;;;;;;;;;2056950;28;20539;-53
2022/05/02 04:38:33;;;;;;;24.63;21.77;;;;;;;;;;2072767;28;20677;-52
2022/05/02 04:39:33;;;;;;;25.47;21.23;;;;;;;;;;2073629;28;20200;-52
2022/05/02 04:40:34;;;;;;;26.07;21.87;;;;;;;;;;2071227;28;20231;-54
2022/05/02 04:41:34;;;;;;;26.77;23.27;;;;;;;;;;2067852;28;20169;-56
2022/05/02 04:42:36;;;;;;;24.10;21.47;;;;;;;;;;2081362;28;20204;-53
2022/05/02 04:43:37;;;;;;;26.80;21.97;;;;;;;;;;2067187;28;20177;-52
2022/05/02 04:44:37;;;;;;;27.80;22.67;;;;;;;;;;2074740;28;20184;-53
2022/05/02 04:45:38;;;;;;;26.00;23.07;;;;;;;;;;2069908;28;20176;-52
2022/05/02 04:46:38;;;;;;;25.80;22.00;;;;;;;;;;2065564;28;20166;-53
2022/05/02 04:47:38;;;;;;;26.93;24.07;;;;;;;;;;2065705;28;20162;-53
2022/05/02 04:49:58;;;;;;;28.40;22.07;;;;;;;;;;2089514;28;20241;-50
2022/05/02 04:50:58;;;;;;;26.03;22.27;;;;;;;;;;2093269;28;20198;-52
2022/05/02 04:51:58;;;;;;;25.30;22.13;;;;;;;;;;2094169;28;20170;-52
2022/05/02 04:52:59;;;;;;;24.77;21.97;;;;;;;;;;2092156;28;20228;-56
2022/05/02 04:53:59;;;;;;;24.23;21.73;;;;;;;;;;2089935;28;20178;-56
2022/05/02 04:54:59;;;;;;;25.53;22.37;;;;;;;;;;2092428;28;20186;-55
2022/05/02 04:55:59;;;;;;;23.43;20.97;;;;;;;;;;2093755;28;20190;-56
2022/05/02 04:57:00;;;;;;;25.67;22.97;;;;;;;;;;2100697;28;20545;-49
2022/05/02 04:58:00;;;;;;;29.93;23.83;;;;;;;;;;2096653;28;20719;-51
2022/05/02 04:59:00;;;;;;;30.40;23.77;;;;;;;;;;2096387;28;20163;-52
2022/05/02 05:00:01;;;;;;;25.00;21.63;;;;;;;;;;2102647;28;20546;-51
2022/05/02 05:01:04;;;;;;;23.80;21.17;;;;;;;;;;2097716;28;20167;-54
2022/05/02 05:02:04;;;;;;;24.47;21.93;;;;;;;;;;2097756;28;20174;-56
2022/05/02 05:03:05;;;;;;;26.23;21.20;;;;;;;;;;2097936;28;20236;-51
2022/05/02 05:04:05;;;;;;;24.37;21.93;;;;;;;;;;2097052;28;20171;-54
2022/05/02 05:05:06;;;;;;;25.00;22.33;;;;;;;;;;2097154;28;20540;-55
2022/05/02 05:06:06;;;;;;;25.07;22.17;;;;;;;;;;2089544;28;20220;-51
2022/05/02 05:07:07;;;;;;;23.55;21.00;;;;;;;;;;2093589;28;20315;-56
2022/05/02 05:08:07;;;;;;;24.60;22.00;;;;;;;;;;2095682;28;20178;-52
2022/05/02 05:09:07;;;;;;;26.53;23.57;;;;;;;;;;2095384;28;20615;-54
2022/05/02 05:10:09;;;;;;;28.03;23.80;;;;;;;;;;2096396;28;20744;-57
2022/05/02 05:11:09;;;;;;;35.43;26.70;;;;;;;;;;2095728;28;20266;-51
2022/05/02 05:12:33;;;;;;;27.67;23.87;;;;;;;;;;2101314;28;20162;-55
2022/05/02 05:13:40;;;;;;;23.98;20.83;;;;;;;;;;2098027;28;20166;-51
2022/05/02 05:16:24;;;;;;;23.30;19.70;;;;;;;;;;2089566;28;20163;-50
2022/05/02 05:17:35;;;;;;;21.92;19.08;;;;;;;;;;2089958;28;20233;-60
2022/05/02 05:18:54;;;;;;;26.57;20.67;;;;;;;;;;2089643;28;20616;-64
2022/05/02 05:20:03;;;;;;;24.93;20.50;;;;;;;;;;2089597;28;20206;-62
2022/05/02 05:21:22;;;;;;;26.90;21.25;;;;;;;;;;2089434;28;20246;-62
2022/05/02 05:22:48;;;;;;;24.95;21.08;;;;;;;;;;2093085;28;20197;-61
2022/05/02 05:24:07;;;;;;;23.53;21.13;;;;;;;;;;2067650;28;20269;-64
2022/05/02 05:25:23;;;;;;;24.33;21.07;;;;;;;;;;2099903;28;20167;-64
2022/05/02 05:26:42;;;;;;;24.17;20.57;;;;;;;;;;2099271;28;20210;-63
2022/05/02 05:28:04;;;;;;;23.73;20.60;;;;;;;;;;2085391;28;20261;-66
2022/05/02 05:29:07;;;;;;;23.97;19.50;;;;;;;;;;2084535;28;20545;-60
2022/05/02 05:30:08;;;;;;;24.03;20.87;;;;;;;;;;2090544;28;20546;-54
2022/05/02 05:31:14;;;;;;;21.45;19.30;;;;;;;;;;2089829;28;20179;-52
2022/05/02 05:32:33;;;;;;;21.27;18.97;;;;;;;;;;2090280;28;20281;-50
2022/05/02 05:33:39;;;;;;;20.90;18.70;;;;;;;;;;2089544;28;20266;-56
2022/05/02 05:35:15;;;;;;;20.05;17.95;;;;;;;;;;2092030;28;20190;-52
2022/05/02 05:36:18;;;;;;;21.03;18.83;;;;;;;;;;2065606;28;20340;-59
2022/05/02 05:37:37;;;;;;;22.25;19.85;;;;;;;;;;2063620;28;20642;-52
2022/05/02 05:38:39;;;;;;;28.77;22.87;;;;;;;;;;2079872;28;20174;-53
2022/05/02 05:39:49;;;;;;;33.58;20.88;;;;;;;;;;2082277;28;20646;-56
2022/05/02 05:40:54;;;;;;;27.35;21.55;;;;;;;;;;2083574;28;20168;-51
2022/05/02 05:42:02;;;;;;;22.27;19.35;;;;;;;;;;2090331;28;20152;-54
2022/05/02 05:43:16;;;;;;;20.48;18.30;;;;;;;;;;2099278;28;20159;-55
2022/05/02 05:44:38;;;;;;;19.73;17.73;;;;;;;;;;2098971;28;20756;-50
2022/05/02 05:45:47;;;;;;;19.70;17.67;;;;;;;;;;2090946;28;20214;-54
2022/05/02 05:46:48;;;;;;;20.17;18.17;;;;;;;;;;2091387;28;20152;-56
2022/05/02 05:48:07;;;;;;;21.92;18.40;;;;;;;;;;2082187;28;20677;-56
2022/05/02 05:49:22;;;;;;;20.75;18.67;;;;;;;;;;2084442;28;20164;-50
2022/05/02 05:50:33;;;;;;;20.77;18.67;;;;;;;;;;2099382;28;20719;-56
2022/05/02 05:51:35;;;;;;;19.50;17.48;;;;;;;;;;2099321;28;20175;-53
2022/05/02 05:52:54;;;;;;;19.02;17.05;;;;;;;;;;2098004;28;20226;-54
2022/05/02 05:54:13;;;;;;;21.38;19.08;;;;;;;;;;2098014;28;20190;-54
2022/05/02 05:55:21;;;;;;;22.05;18.48;;;;;;;;;;2090976;28;20167;-50
2022/05/02 05:56:30;;;;;;;20.02;18.05;;;;;;;;;;2081979;28;20630;-50
2022/05/02 05:57:50;;;;;;;20.30;18.20;;;;;;;;;;2084637;28;20156;-51
2022/05/02 05:59:05;;;;;;;23.88;18.77;;;;;;;;;;2092541;28;20194;-52
2022/05/02 06:00:12;;;;;;;21.17;19.13;;;;;;;;;;2084123;28;20225;-48
2022/05/02 06:01:22;;;;;;;22.35;19.77;;;;;;;;;;2078063;28;20659;-57
2022/05/02 06:02:30;;;;;;;20.45;18.15;;;;;;;;;;2085406;28;20204;-56
2022/05/02 06:03:34;;;;;;;19.85;17.67;;;;;;;;;;2086578;28;20184;-56
2022/05/02 06:04:34;;;;;;;19.70;17.75;;;;;;;;;;2086600;28;20167;-52
2022/05/02 06:05:37;;;;;;;20.35;18.27;;;;;;;;;;2088169;28;20686;-55
2022/05/02 06:06:39;;;;;;;20.27;18.30;;;;;;;;;;2093328;28;20174;-52
2022/05/02 06:07:40;;;;;;;23.55;17.73;;;;;;;;;;2095408;28;20198;-52
2022/05/02 06:08:40;;;;;;;19.95;17.95;;;;;;;;;;2095785;28;20167;-46
2022/05/02 06:09:42;;;;;;;19.20;17.30;;;;;;;;;;2096089;28;20206;-51